createdAt,value
2018-12-15T00:10:26.888Z,82.00
2018-12-15T00:18:05.525Z,81.40
2018-12-15T00:20:41.596Z,81.40
2018-12-15T00:23:28.975Z,81.70
2018-12-15T00:26:04.917Z,81.80
2018-12-15T00:28:40.329Z,82.00
2018-12-15T00:31:12.493Z,82.50
2018-12-15T00:33:50.316Z,82.50
2018-12-15T00:36:29.199Z,82.00
2018-12-15T00:39:09.918Z,81.60
2018-12-15T00:41:48.779Z,81.80
2018-12-15T00:44:22.358Z,81.20
2018-12-15T00:46:58.919Z,81.20
2018-12-15T00:49:33.309Z,81.30
2018-12-15T00:52:04.911Z,80.80
2018-12-15T00:54:45.077Z,81.00
2018-12-15T00:57:18.517Z,80.90
2018-12-15T00:59:56.455Z,81.40
2018-12-15T01:02:37.608Z,80.80
2018-12-15T01:08:18.573Z,80.90
2018-12-15T01:10:58.784Z,81.00
2018-12-15T01:13:32.679Z,80.60
2018-12-15T01:16:10.516Z,80.40
2018-12-15T01:18:51.869Z,80.60
2018-12-15T01:21:40.459Z,80.50
2018-12-15T01:24:14.428Z,80.70
2018-12-15T01:26:52.369Z,81.90
2018-12-15T01:29:27.819Z,81.90
2018-12-15T01:32:03.419Z,81.20
2018-12-15T01:34:37.259Z,80.90
2018-12-15T01:40:11.728Z,81.40
2018-12-15T01:42:51.888Z,81.80
2018-12-15T01:45:25.644Z,81.40
2018-12-15T01:47:59.026Z,81.30
2018-12-15T01:50:38.816Z,81.00
2018-12-15T01:53:14.432Z,81.50
2018-12-15T01:55:58.819Z,81.10
2018-12-15T01:58:33.983Z,81.00
2018-12-15T02:01:05.567Z,81.50
2018-12-15T02:03:43.575Z,81.90
2018-12-15T02:06:15.439Z,82.00
2018-12-15T02:08:53.144Z,82.00
2018-12-15T02:11:26.586Z,82.00
2018-12-15T02:14:02.428Z,81.80
2018-12-15T02:16:40.723Z,81.60
2018-12-15T02:21:44.403Z,81.00
2018-12-15T02:24:16.577Z,81.10
2018-12-15T02:26:57.252Z,81.90
2018-12-15T02:29:28.853Z,82.10
2018-12-15T02:32:09.616Z,82.30
2018-12-15T02:34:41.065Z,82.00
2018-12-15T02:37:20.848Z,81.80
2018-12-15T02:39:51.615Z,81.90
2018-12-15T02:42:26.767Z,81.90
2018-12-15T02:45:00.721Z,82.00
2018-12-15T02:47:41.748Z,82.10
2018-12-15T02:50:13.283Z,81.50
2018-12-15T02:52:48.950Z,81.40
2018-12-15T02:55:24.116Z,81.50
2018-12-15T02:57:58.647Z,81.40
2018-12-15T03:00:38.813Z,81.10
2018-12-15T03:03:12.240Z,81.60
2018-12-15T03:05:46.375Z,81.50
2018-12-15T03:08:19.615Z,81.40
2018-12-15T03:10:53.433Z,80.60
2018-12-15T03:13:27.986Z,80.70
2018-12-15T03:19:13.164Z,81.40
2018-12-15T03:31:59.881Z,82.10
2018-12-15T03:34:33.610Z,82.50
2018-12-15T03:37:04.814Z,82.70
2018-12-15T03:39:39.872Z,81.90
2018-12-15T03:42:13.401Z,82.50
2018-12-15T03:44:53.633Z,82.20
2018-12-15T03:47:28.954Z,82.00
2018-12-15T03:50:05.389Z,81.40
2018-12-15T03:52:43.263Z,81.00
2018-12-15T03:55:24.166Z,80.50
2018-12-15T03:57:57.748Z,80.90
2018-12-15T04:00:33.529Z,80.60
2018-12-15T04:03:11.252Z,80.20
2018-12-15T04:05:52.817Z,80.10
2018-12-15T04:08:39.627Z,79.70
2018-12-15T04:17:16.116Z,80.80
2018-12-15T04:19:51.972Z,80.90
2018-12-15T04:22:23.265Z,80.80
2018-12-15T04:25:09.276Z,81.60
2018-12-15T04:27:49.720Z,81.50
2018-12-15T04:30:30.487Z,82.00
2018-12-15T04:33:05.633Z,81.80
2018-12-15T04:35:43.746Z,81.10
2018-12-15T04:38:17.192Z,80.70
2018-12-15T04:40:54.568Z,80.60
2018-12-15T04:43:32.350Z,80.50
2018-12-15T04:46:13.579Z,80.50
2018-12-15T04:48:49.294Z,80.10
2018-12-15T04:51:33.045Z,80.00
2018-12-15T04:54:07.640Z,79.60
2018-12-15T04:56:43.531Z,80.30
2018-12-15T04:59:23.402Z,80.00
2018-12-15T05:02:00.793Z,80.30
2018-12-15T05:04:36.812Z,80.10
2018-12-15T05:07:10.905Z,79.90
2018-12-15T05:09:46.455Z,79.90
2018-12-15T05:12:28.327Z,80.10
2018-12-15T05:15:16.246Z,79.50
2018-12-15T05:17:54.421Z,80.00
2018-12-15T05:20:31.328Z,79.20
2018-12-15T05:23:08.884Z,78.90
2018-12-15T05:25:42.252Z,78.80
2018-12-15T05:28:18.188Z,79.40
2018-12-15T05:30:51.441Z,79.70
2018-12-15T05:33:25.028Z,80.30
2018-12-15T05:35:56.609Z,80.10
2018-12-15T05:38:33.353Z,80.90
2018-12-15T05:44:10.103Z,80.00
2018-12-15T05:46:43.348Z,80.10
2018-12-15T05:49:14.804Z,80.20
2018-12-15T05:51:56.148Z,79.80
2018-12-15T05:54:30.179Z,80.10
2018-12-15T05:57:04.364Z,79.50
2018-12-15T05:59:39.458Z,79.10
2018-12-15T06:02:14.951Z,79.00
2018-12-15T06:04:53.862Z,79.50
2018-12-15T06:07:27.886Z,79.60
2018-12-15T06:10:01.973Z,79.30
2018-12-15T06:12:36.141Z,79.10
2018-12-15T06:15:10.423Z,78.60
2018-12-15T06:17:45.081Z,78.40
2018-12-15T06:20:18.864Z,78.80
2018-12-15T06:22:54.802Z,78.90
2018-12-15T06:25:34.914Z,79.30
2018-12-15T06:28:14.720Z,79.70
2018-12-15T06:30:50.847Z,80.30
2018-12-15T06:33:37.612Z,80.20
2018-12-15T06:36:15.628Z,80.30
2018-12-15T06:38:56.239Z,80.30
2018-12-15T06:41:32.197Z,80.30
2018-12-15T06:44:07.547Z,80.00
2018-12-15T06:46:45.669Z,80.20
2018-12-15T06:49:21.914Z,80.10
2018-12-15T06:51:53.759Z,80.80
2018-12-15T06:54:27.470Z,80.60
2018-12-15T06:57:02.364Z,80.80
2018-12-15T06:59:33.547Z,80.70
2018-12-15T07:02:19.068Z,80.20
2018-12-15T07:04:52.253Z,80.20
2018-12-15T07:07:32.533Z,80.50
2018-12-15T07:10:07.744Z,80.60
2018-12-15T07:12:41.303Z,80.30
2018-12-15T07:15:15.287Z,80.70
2018-12-15T07:17:55.868Z,81.00
2018-12-15T07:20:27.332Z,80.70
2018-12-15T07:23:05.406Z,81.40
2018-12-15T07:25:44.656Z,81.20
2018-12-15T07:28:18.608Z,81.30
2018-12-15T07:30:52.912Z,81.40
2018-12-15T07:33:28.395Z,81.30
2018-12-15T07:35:56.239Z,80.80
2018-12-15T07:38:25.419Z,80.20
2018-12-15T07:40:53.091Z,81.10
2018-12-15T07:43:20.799Z,80.90
2018-12-15T07:45:48.934Z,81.10
2018-12-15T07:48:52.043Z,84.50
2018-12-15T07:51:24.154Z,80.90
2018-12-15T07:54:07.851Z,80.40
2018-12-15T08:18:04.988Z,81.60
2018-12-15T08:20:39.137Z,82.00
2018-12-15T08:26:01.824Z,82.10
2018-12-15T08:57:46.829Z,81.20
2018-12-15T09:12:33.902Z,80.40
2018-12-15T09:18:16.948Z,81.80
2018-12-15T09:23:45.591Z,81.10
2018-12-15T10:39:49.338Z,81.20
2018-12-15T11:06:48.021Z,81.20
2018-12-15T11:09:34.146Z,80.80
2018-12-15T11:42:04.774Z,80.40
2018-12-15T11:47:47.706Z,79.90
2018-12-15T11:55:58.351Z,80.30
2018-12-15T11:58:45.235Z,80.10
2018-12-15T12:04:28.694Z,80.40
2018-12-15T12:07:06.092Z,80.50
2018-12-15T12:15:13.153Z,79.60
2018-12-15T12:18:00.088Z,80.30
2018-12-15T12:20:46.596Z,79.50
2018-12-15T12:26:07.943Z,78.70
2018-12-15T12:28:43.931Z,79.50
2018-12-15T12:31:28.385Z,79.40
2018-12-15T12:34:08.784Z,80.00
2018-12-15T12:36:44.165Z,79.90
2018-12-15T12:39:24.001Z,80.00
2018-12-15T12:42:02.329Z,79.80
2018-12-15T12:44:38.045Z,80.10
2018-12-15T12:47:16.351Z,79.90
2018-12-15T12:49:58.558Z,80.00
2018-12-15T12:52:38.297Z,79.70
2018-12-15T13:53:08.311Z,81.30
2018-12-15T13:55:49.096Z,81.40
2018-12-15T16:00:19.534Z,80.90
2018-12-15T16:03:06.032Z,80.60
2018-12-15T16:21:07.306Z,81.00
2018-12-15T16:23:41.819Z,80.40
2018-12-15T16:26:18.312Z,80.50
2018-12-15T16:28:57.618Z,80.50
2018-12-15T16:31:32.411Z,80.60
2018-12-15T16:34:04.594Z,80.90
2018-12-15T16:36:47.210Z,80.50
2018-12-15T16:39:32.426Z,80.50
2018-12-15T16:45:22.249Z,81.40
2018-12-15T16:51:15.129Z,81.90
2018-12-15T17:14:27.468Z,81.60
2018-12-15T23:54:29.463Z,89.20
